Weather at Hall Caine Airport [CLOSED]

Public forecast

Using degrees Celsius for public forecast. Weather courtesy of forecast.io.

Closest aviation weather report (METAR) to Hall Caine Airport

Report is more than 6 hours old.

Closest report is Isle of Man Airport, 16.5 nm (30.6 km) SSW.

2022/11/14 15:20 (retrieved 2 years ago)

EGNS 141520Z 19010KT 9999 FEW014 BKN035 12/10 Q1003 NOSIG

Closest aviation forecast (TAF) to Hall Caine Airport

Forecast is more than 12 hours old.

Closest forecast is Belfast International Airport, 64.9 nm (120.3 km) WNW.

2023/02/22 18:00 (retrieved 1 year ago)

TAF EGAA 221654Z 2218/2318 34015G25KT 9999 SCT025 PROB30 TEMPO 2218/2220 7000 SHRA BECMG 2219/2222 35008KT BECMG 2313/2316 29010KT